createdAt,value
2019-04-24T00:00:29.282Z,5.63
2019-04-24T00:10:29.917Z,6.60
2019-04-24T00:15:37.551Z,7.47
2019-04-24T00:25:41.030Z,6.57
2019-04-24T00:30:55.485Z,8.73
2019-04-24T00:36:10.543Z,9.20
2019-04-24T00:41:05.149Z,6.10
2019-04-24T00:46:09.146Z,5.50
2019-04-24T00:51:16.475Z,7.33
2019-04-24T00:56:21.780Z,5.97
2019-04-24T01:01:42.350Z,10.40
2019-04-24T01:06:49.384Z,8.57
2019-04-24T01:11:39.480Z,6.80
2019-04-24T01:22:01.134Z,14.10
2019-04-24T01:26:51.294Z,8.07
2019-04-24T01:32:09.116Z,25.63
2019-04-24T01:37:31.364Z,9.63
2019-04-24T01:42:20.204Z,8.43
2019-04-24T01:47:26.553Z,6.60
2019-04-24T01:57:20.939Z,7.50
2019-04-24T02:02:27.086Z,5.37
2019-04-24T02:12:42.649Z,6.40
2019-04-24T02:17:36.630Z,5.00
2019-04-24T02:22:45.428Z,5.70
2019-04-24T02:27:34.390Z,9.30
2019-04-24T02:33:01.711Z,9.93
2019-04-24T02:48:19.240Z,9.43
2019-04-24T02:53:12.855Z,5.40
2019-04-24T03:03:34.706Z,5.60
2019-04-24T03:13:48.591Z,9.27
2019-04-24T03:23:46.037Z,7.20
2019-04-24T04:14:53.084Z,9.93
2019-04-24T04:19:46.554Z,8.57
2019-04-24T04:30:10.276Z,15.80
2019-04-24T04:35:08.198Z,11.00
2019-04-24T04:51:12.768Z,12.40
2019-04-24T05:11:46.657Z,12.93
2019-04-24T05:21:50.967Z,14.83
2019-04-24T05:31:46.587Z,15.00
2019-04-24T05:37:07.418Z,18.03
2019-04-24T05:42:29.826Z,14.43
2019-04-24T05:46:53.383Z,16.33
2019-04-24T05:57:42.187Z,14.87
2019-04-24T06:02:39.566Z,14.03
2019-04-24T06:12:51.924Z,19.90
2019-04-24T06:18:21.488Z,15.57
2019-04-24T06:23:57.931Z,17.83
2019-04-24T06:29:12.558Z,20.80
2019-04-24T06:33:39.919Z,16.70
2019-04-24T06:38:48.161Z,21.20
2019-04-24T06:43:45.337Z,21.73
2019-04-24T06:48:46.440Z,25.03
2019-04-24T06:54:06.782Z,18.27
2019-04-24T07:09:34.331Z,19.73
2019-04-24T07:15:07.283Z,27.73
2019-04-24T07:19:51.096Z,26.80
2019-04-24T07:35:32.983Z,20.17
2019-04-24T07:40:12.771Z,25.30
2019-04-24T07:45:25.543Z,27.97
2019-04-24T07:50:34.454Z,19.40
2019-04-24T07:55:40.035Z,22.80
2019-04-24T08:00:28.077Z,28.07
2019-04-24T08:05:25.327Z,20.63
2019-04-24T08:10:41.680Z,23.70
2019-04-24T08:15:37.846Z,19.87
2019-04-24T08:20:44.610Z,23.27
2019-04-24T08:25:42.004Z,20.27
2019-04-24T08:30:51.150Z,21.03
2019-04-24T08:35:57.906Z,23.50
2019-04-24T08:41:12.990Z,20.77
2019-04-24T08:46:41.617Z,22.77
2019-04-24T08:57:03.353Z,23.97
2019-04-24T09:02:05.016Z,17.47
2019-04-24T09:07:31.683Z,20.90
2019-04-24T09:17:26.871Z,25.03
2019-04-24T09:22:31.936Z,25.23
2019-04-24T09:27:48.851Z,21.47
2019-04-24T09:38:02.295Z,16.90
2019-04-24T09:48:27.742Z,23.00
2019-04-24T10:03:31.495Z,18.90
2019-04-24T10:13:35.197Z,15.63
2019-04-24T10:24:02.899Z,20.57
2019-04-24T10:34:33.332Z,16.43
2019-04-24T10:45:07.226Z,22.50
2019-04-24T10:50:25.759Z,19.67
2019-04-24T10:55:19.894Z,17.70
2019-04-24T11:00:17.012Z,21.23
2019-04-24T11:05:39.983Z,19.67
2019-04-24T11:10:47.521Z,22.43
2019-04-24T11:16:18.888Z,20.90
2019-04-24T11:26:45.930Z,14.77
2019-04-24T11:31:43.994Z,18.37
2019-04-24T11:36:56.358Z,21.70
2019-04-24T11:41:58.430Z,17.77
2019-04-24T11:47:49.096Z,16.30
2019-04-24T12:03:01.641Z,14.80
2019-04-24T12:08:39.858Z,18.13
2019-04-24T12:13:59.718Z,17.50
2019-04-24T12:24:06.052Z,17.70
2019-04-24T12:29:14.201Z,18.30
2019-04-24T12:34:11.697Z,18.47
2019-04-24T12:39:14.832Z,17.53
2019-04-24T12:44:25.575Z,16.17
2019-04-24T12:49:21.327Z,17.67
2019-04-24T12:59:41.004Z,28.97
2019-04-24T13:10:08.350Z,19.03
2019-04-24T13:15:11.538Z,20.03
2019-04-24T13:19:38.943Z,22.27
2019-04-24T13:25:20.838Z,19.07
2019-04-24T13:35:32.695Z,22.97
2019-04-24T13:40:47.298Z,15.10
2019-04-24T13:46:00.126Z,15.00
2019-04-24T13:55:43.283Z,20.83
2019-04-24T14:01:10.254Z,19.57
2019-04-24T14:06:06.193Z,17.33
2019-04-24T14:11:14.750Z,17.47
2019-04-24T14:16:06.358Z,20.23
2019-04-24T14:21:12.490Z,18.30
2019-04-24T14:26:17.666Z,20.27
2019-04-24T14:41:20.584Z,15.90
2019-04-24T14:51:24.363Z,13.77
2019-04-24T14:56:25.826Z,19.87
2019-04-24T15:01:29.350Z,15.17
2019-04-24T15:11:27.555Z,15.00
2019-04-24T15:21:56.956Z,17.80
2019-04-24T15:26:49.479Z,12.70
2019-04-24T15:31:55.789Z,18.00
2019-04-24T15:36:57.286Z,14.80
2019-04-24T15:41:56.794Z,10.73
2019-04-24T15:47:03.488Z,10.30
2019-04-24T15:51:32.554Z,12.33
2019-04-24T15:56:28.397Z,14.33
2019-04-24T16:02:02.544Z,13.03
2019-04-24T16:06:52.023Z,12.77
2019-04-24T16:11:51.647Z,9.50
2019-04-24T16:17:18.222Z,11.33
2019-04-24T16:27:29.191Z,7.63
2019-04-24T16:37:31.437Z,9.50
2019-04-24T16:43:11.646Z,17.33
2019-04-24T16:48:26.690Z,8.53
2019-04-24T16:53:05.171Z,11.60
2019-04-24T17:13:14.290Z,9.00
2019-04-24T17:18:15.385Z,19.47
2019-04-24T17:23:06.440Z,11.60
2019-04-24T17:28:15.776Z,12.40
2019-04-24T17:33:08.763Z,10.77
2019-04-24T17:37:46.199Z,11.10
2019-04-24T17:43:03.332Z,14.10
2019-04-24T17:48:15.530Z,14.80
2019-04-24T17:53:23.074Z,12.40
2019-04-24T17:57:51.678Z,13.27
2019-04-24T18:02:51.309Z,13.27
2019-04-24T18:07:51.494Z,14.20
2019-04-24T18:12:51.298Z,10.83
2019-04-24T18:17:52.181Z,13.17
2019-04-24T18:22:52.332Z,16.40
2019-04-24T18:27:52.430Z,11.40
2019-04-24T18:32:52.212Z,12.70
2019-04-24T18:37:52.993Z,12.80
2019-04-24T18:42:53.234Z,17.30
2019-04-24T18:47:53.346Z,12.50
2019-04-24T18:52:53.128Z,12.73
2019-04-24T18:57:52.784Z,20.97
2019-04-24T19:02:52.422Z,15.47
2019-04-24T19:07:52.288Z,13.40
2019-04-24T19:12:52.189Z,14.63
2019-04-24T19:17:54.979Z,16.83
2019-04-24T19:23:02.600Z,15.67
2019-04-24T19:27:54.309Z,13.30
2019-04-24T19:32:53.863Z,14.73
2019-04-24T19:37:53.487Z,14.10
2019-04-24T19:42:53.063Z,16.17
2019-04-24T19:47:52.628Z,15.80
2019-04-24T19:52:52.200Z,14.47
2019-04-24T19:57:52.482Z,16.50
2019-04-24T20:02:52.507Z,24.50
2019-04-24T20:07:52.323Z,15.23
2019-04-24T20:12:51.905Z,20.20
2019-04-24T20:17:53.428Z,19.87
2019-04-24T20:22:53.430Z,16.43
2019-04-24T20:27:53.235Z,13.17
2019-04-24T20:32:52.807Z,13.30
2019-04-24T20:37:52.396Z,18.17
2019-04-24T20:42:51.960Z,16.47
2019-04-24T20:47:51.537Z,13.90
2019-04-24T20:52:51.485Z,15.00
2019-04-24T20:57:51.907Z,16.40
2019-04-24T21:02:51.722Z,20.57
2019-04-24T21:08:10.322Z,13.77
2019-04-24T21:13:25.023Z,16.57
2019-04-24T21:18:24.607Z,16.23
2019-04-24T21:23:24.272Z,15.97
2019-04-24T21:28:25.507Z,14.33
2019-04-24T21:33:25.511Z,16.90
2019-04-24T21:38:26.865Z,14.57
2019-04-24T21:43:29.988Z,13.23
2019-04-24T21:48:27.997Z,16.70
2019-04-24T21:53:27.604Z,20.70
2019-04-24T21:58:27.187Z,14.70
2019-04-24T22:03:51.031Z,20.40
2019-04-24T22:08:51.359Z,18.53
2019-04-24T22:13:52.274Z,28.97
2019-04-24T22:18:51.959Z,35.47
2019-04-24T22:23:57.818Z,23.53
2019-04-24T22:28:57.467Z,20.60
2019-04-24T22:34:19.661Z,44.77
2019-04-24T22:39:27.633Z,19.60
2019-04-24T22:44:28.445Z,21.63
2019-04-24T22:49:28.890Z,33.40
2019-04-24T22:54:31.268Z,21.50
2019-04-24T22:59:29.939Z,19.60
2019-04-24T23:04:29.884Z,20.30
2019-04-24T23:09:37.673Z,17.90
2019-04-24T23:14:37.628Z,17.37
2019-04-24T23:19:39.498Z,18.97
2019-04-24T23:24:53.586Z,22.13
2019-04-24T23:29:49.299Z,17.77
2019-04-24T23:34:51.274Z,16.87
2019-04-24T23:39:50.998Z,17.87
2019-04-24T23:44:52.209Z,31.00
2019-04-24T23:49:53.953Z,24.03
2019-04-24T23:55:04.702Z,19.90
2019-04-24T23:59:55.833Z,21.73
